Wednesday, October 18, 2017, 5:59 PM EDT
Back to Local

KHLG, Wheeling Ohio County Airport

Location: Wheeling, WV, United States Lat: 40.167
Local Time: 5:59 PM EDT (21:59 GMT) Lon: -80.65
Time Zone: US/Eastern Elev: 1194 ft

Show me the last for .
Show Decoded

2017-10-18 16:53 METAR KHLG 182053Z VRB04KT 10SM CLR 21/04 A3023 RMK AO2 SLP238 T02060044 56021 =
2017-10-18 15:53 METAR KHLG 181953Z 00000KT 10SM CLR 21/04 A3024 RMK AO2 SLP243 T02060044 =
2017-10-18 14:53 METAR KHLG 181853Z 22006KT 10SM CLR 21/04 A3026 RMK AO2 SLP251 T02060044 =
2017-10-18 13:53 METAR KHLG 181753Z 14005KT 10SM CLR 19/04 A3029 RMK AO2 SLP260 T01890039 10194
                 20044 58020 =
2017-10-18 12:53 METAR KHLG 181653Z VRB04KT 10SM CLR 18/04 A3033 RMK AO2 SLP273 T01780044 =
2017-10-18 11:53 METAR KHLG 181553Z VRB03KT 10SM CLR 17/04 A3035 RMK AO2 SLP281 T01670044 =
2017-10-18 10:53 METAR KHLG 181453Z 21004KT 10SM CLR 14/04 A3035 RMK AO2 SLP283 T01390044 50004 =
2017-10-18 09:53 METAR KHLG 181353Z 00000KT 10SM CLR 11/06 A3036 RMK AO2 SLP287 T01110056 =
2017-10-18 08:53 METAR KHLG 181253Z 00000KT 10SM CLR 07/05 A3036 RMK AO2 SLP288 T00670050 =
2017-10-18 07:53 METAR KHLG 181153Z 00000KT 8SM CLR 06/04 A3034 RMK AO2 SLP281 T00560039 10094
                 20056 51012 $ =
2017-10-18 06:53 METAR KHLG 181053Z 00000KT 10SM CLR 06/03 A3033 RMK AO2 SLP277 T00610028 $ =
2017-10-18 05:53 METAR KHLG 180953Z AUTO 14003KT 10SM CLR 07/03 A3032 RMK AO2 SLP272 T00720028 $
                 =
2017-10-18 04:53 METAR KHLG 180853Z AUTO 18004KT 10SM CLR 07/03 A3030 RMK AO2 SLP266 T00720028 $
                 =
2017-10-18 03:53 METAR KHLG 180753Z AUTO 18004KT 10SM CLR 08/03 A3030 RMK AO2 SLP264 T00780028 $
                 =
2017-10-18 02:53 METAR KHLG 180653Z AUTO 20003KT 10SM 08/03 A3030 RMK AO2 SLP265 T00830028 $ =
2017-10-18 01:53 METAR KHLG 180553Z AUTO 18006KT 10SM CLR 09/03 A3031 RMK AO2 SLP268 T00940028
                 10122 20089 51005 =
2017-10-18 00:53 METAR KHLG 180453Z AUTO 16005KT 10SM CLR 09/03 A3031 RMK AO2 SLP267 T00940028
                 401720017 =
2017-10-17 23:53 METAR KHLG 180353Z AUTO 18006KT 10SM CLR 09/03 A3030 RMK AO2 SLP266 T00940033 =
2017-10-17 22:53 METAR KHLG 180253Z AUTO 20005KT 10SM CLR 10/03 A3030 RMK AO2 SLP265 T01000028
                 53009 =
2017-10-17 21:53 METAR KHLG 180153Z 19007KT 10SM CLR 11/03 A3028 RMK AO2 SLP262 T01060028 =
2017-10-17 20:53 METAR KHLG 180053Z 19007KT 10SM CLR 11/03 A3027 RMK AO2 SLP260 T01110033 =
2017-10-17 19:53 METAR KHLG 172353Z 20007KT 10SM CLR 12/03 A3027 RMK AO2 SLP258 T01220028 10172
                 20117 53001 =
2017-10-17 18:53 METAR KHLG 172253Z 21006KT 10SM CLR 13/03 A3026 RMK AO2 SLP254 T01330028 =

Support USWX by starting your Amazon purchase here.